Time;durP1;ratioP1;P1;durP2;ratioP2;P2;SDS_P1;SDS_P2;PMS_P1;PMS_P2;Temp;Humidity;BMP_temperature;BMP_pressure;BME280_temperature;BME280_humidity;BME280_pressure;Samples;Min_cycle;Max_cycle;Signal;HPM_P1;HPM_P2
2021/08/08 00:01:38;;;;;;;34.53;9.95;;;;;;;;;;5103272;28;20027;-73
2021/08/08 00:04:04;;;;;;;33.10;11.88;;;;;;;;;;5102505;28;20028;-72
2021/08/08 00:06:30;;;;;;;36.60;12.38;;;;;;;;;;5103412;28;20514;-73
2021/08/08 00:08:56;;;;;;;34.88;10.98;;;;;;;;;;5110791;28;20103;-74
2021/08/08 00:11:22;;;;;;;29.98;9.82;;;;;;;;;;5110953;28;20027;-73
2021/08/08 00:13:48;;;;;;;28.83;9.77;;;;;;;;;;5108805;28;20406;-72
2021/08/08 00:16:15;;;;;;;37.70;10.55;;;;;;;;;;5107016;27;20527;-70
2021/08/08 00:18:41;;;;;;;32.60;11.13;;;;;;;;;;5110584;28;20016;-74
2021/08/08 00:21:07;;;;;;;23.33;8.45;;;;;;;;;;5107655;28;21502;-73
2021/08/08 00:23:33;;;;;;;27.58;8.68;;;;;;;;;;5109149;28;20027;-72
2021/08/08 00:25:59;;;;;;;20.50;7.50;;;;;;;;;;5107414;28;20036;-74
2021/08/08 00:28:25;;;;;;;30.98;8.27;;;;;;;;;;5109879;27;20050;-73
2021/08/08 00:30:51;;;;;;;30.15;8.25;;;;;;;;;;5110178;28;20020;-75
2021/08/08 00:33:17;;;;;;;23.52;8.30;;;;;;;;;;5109817;28;20093;-75
2021/08/08 00:35:43;;;;;;;25.52;8.13;;;;;;;;;;5110696;28;20023;-72
2021/08/08 00:38:10;;;;;;;31.45;9.48;;;;;;;;;;5112563;28;20049;-73
2021/08/08 00:40:36;;;;;;;32.90;9.20;;;;;;;;;;5112385;28;20608;-73
2021/08/08 00:43:02;;;;;;;36.58;9.38;;;;;;;;;;5112594;28;20050;-73
2021/08/08 00:45:28;;;;;;;17.73;6.78;;;;;;;;;;5111142;28;20689;-75
2021/08/08 00:47:54;;;;;;;24.25;6.78;;;;;;;;;;5112912;28;20513;-74
2021/08/08 00:50:20;;;;;;;27.30;8.55;;;;;;;;;;5116894;27;20023;-78
2021/08/08 00:52:46;;;;;;;20.65;6.80;;;;;;;;;;5112644;28;20023;-74
2021/08/08 00:55:13;;;;;;;14.27;5.68;;;;;;;;;;5110997;28;20032;-74
2021/08/08 00:57:39;;;;;;;22.45;6.13;;;;;;;;;;5107291;28;20035;-75
2021/08/08 01:00:06;;;;;;;28.83;7.57;;;;;;;;;;5109382;28;20027;-74
2021/08/08 01:02:36;;;;;;;25.88;6.47;;;;;;;;;;5096524;28;20572;-75
2021/08/08 01:05:06;;;;;;;17.42;5.25;;;;;;;;;;5092322;28;20449;-78
2021/08/08 01:07:38;;;;;;;22.75;6.22;;;;;;;;;;5109053;28;20035;-75
2021/08/08 01:10:05;;;;;;;22.48;5.93;;;;;;;;;;5110837;28;20234;-80
2021/08/08 01:12:32;;;;;;;25.65;6.03;;;;;;;;;;5108461;28;20017;-75
2021/08/08 01:14:58;;;;;;;20.60;6.18;;;;;;;;;;5108920;28;20028;-79
2021/08/08 01:17:25;;;;;;;23.45;5.50;;;;;;;;;;5111161;28;20088;-74
2021/08/08 01:19:57;;;;;;;30.30;7.85;;;;;;;;;;5111471;28;20026;-72
2021/08/08 01:22:26;;;;;;;27.73;6.90;;;;;;;;;;5112259;28;20034;-72
2021/08/08 01:24:52;;;;;;;20.95;6.85;;;;;;;;;;5110807;28;20035;-72
2021/08/08 01:27:19;;;;;;;31.48;7.55;;;;;;;;;;5110975;28;20031;-75
2021/08/08 01:29:45;;;;;;;32.25;7.90;;;;;;;;;;5105957;28;20024;-72
2021/08/08 01:32:11;;;;;;;28.60;7.72;;;;;;;;;;5111801;28;20073;-70
2021/08/08 01:34:37;;;;;;;41.05;7.82;;;;;;;;;;5111341;28;20042;-73
2021/08/08 01:37:03;;;;;;;31.92;8.15;;;;;;;;;;5110086;28;20031;-74
2021/08/08 01:39:31;;;;;;;26.88;6.93;;;;;;;;;;5111662;28;20019;-71
2021/08/08 01:41:58;;;;;;;41.65;8.05;;;;;;;;;;5112126;28;20024;-72
2021/08/08 01:44:25;;;;;;;27.80;6.18;;;;;;;;;;5109498;28;20527;-72
2021/08/08 01:46:53;;;;;;;27.83;6.90;;;;;;;;;;5107784;28;20031;-75
2021/08/08 01:49:31;;;;;;;21.55;4.90;;;;;;;;;;5111263;28;20035;-74
2021/08/08 01:51:58;;;;;;;18.25;4.80;;;;;;;;;;5108357;28;20042;-74
2021/08/08 01:54:24;;;;;;;18.92;4.90;;;;;;;;;;5110073;28;20521;-75
2021/08/08 01:56:51;;;;;;;18.45;5.05;;;;;;;;;;5110252;28;20436;-73
2021/08/08 01:59:18;;;;;;;24.27;6.00;;;;;;;;;;5111250;28;20089;-73
2021/08/08 02:01:44;;;;;;;26.95;7.80;;;;;;;;;;5109063;27;20027;-73
2021/08/08 02:04:20;;;;;;;22.92;6.55;;;;;;;;;;5108628;27;20517;-74
2021/08/08 02:06:46;;;;;;;16.20;5.22;;;;;;;;;;5109683;28;20131;-73
2021/08/08 02:09:13;;;;;;;29.45;8.32;;;;;;;;;;5110435;28;20023;-73
2021/08/08 02:11:39;;;;;;;25.45;6.13;;;;;;;;;;5110544;27;20047;-76
2021/08/08 02:14:05;;;;;;;20.90;5.57;;;;;;;;;;5109297;28;20028;-74
2021/08/08 02:16:32;;;;;;;25.30;6.15;;;;;;;;;;5108903;28;20118;-76
2021/08/08 02:18:58;;;;;;;21.90;5.05;;;;;;;;;;5108787;28;20044;-74
2021/08/08 02:21:24;;;;;;;30.90;6.97;;;;;;;;;;5111383;28;20036;-72
2021/08/08 02:23:50;;;;;;;22.20;5.60;;;;;;;;;;5107033;28;20051;-72
2021/08/08 02:26:16;;;;;;;22.77;4.78;;;;;;;;;;5108814;28;20036;-74
2021/08/08 02:28:42;;;;;;;22.40;5.72;;;;;;;;;;5110873;28;20031;-76
2021/08/08 02:31:08;;;;;;;20.92;5.20;;;;;;;;;;5111173;28;20498;-74
2021/08/08 02:33:35;;;;;;;14.88;4.05;;;;;;;;;;5111369;28;20039;-73
2021/08/08 02:36:01;;;;;;;21.88;4.53;;;;;;;;;;5109925;28;20503;-77
2021/08/08 02:38:27;;;;;;;22.60;6.65;;;;;;;;;;5115775;28;20035;-72
2021/08/08 02:40:53;;;;;;;11.40;4.18;;;;;;;;;;5115096;28;20043;-73
2021/08/08 02:43:19;;;;;;;21.55;5.00;;;;;;;;;;5115535;27;20027;-71
2021/08/08 02:45:49;;;;;;;21.30;5.07;;;;;;;;;;5113383;28;20046;-80
2021/08/08 02:48:15;;;;;;;28.23;5.60;;;;;;;;;;5113839;28;20023;-74
2021/08/08 02:50:41;;;;;;;26.70;5.15;;;;;;;;;;5114684;28;20019;-77
2021/08/08 02:53:07;;;;;;;38.25;6.85;;;;;;;;;;5111093;28;20031;-75
2021/08/08 02:55:34;;;;;;;25.65;6.07;;;;;;;;;;5113614;28;20027;-74
2021/08/08 02:58:00;;;;;;;31.08;5.95;;;;;;;;;;5105836;28;20039;-75
2021/08/08 03:00:26;;;;;;;33.60;6.97;;;;;;;;;;5111396;28;20028;-72
2021/08/08 03:02:52;;;;;;;38.10;6.80;;;;;;;;;;5113329;28;20157;-76
2021/08/08 03:05:18;;;;;;;38.08;7.50;;;;;;;;;;5113262;27;20028;-72
2021/08/08 03:07:45;;;;;;;34.80;6.78;;;;;;;;;;5114931;28;20429;-73
2021/08/08 03:10:11;;;;;;;29.08;7.00;;;;;;;;;;5114694;28;20023;-73
2021/08/08 03:12:37;;;;;;;41.75;7.07;;;;;;;;;;5114639;28;20560;-75
2021/08/08 03:15:04;;;;;;;34.20;7.72;;;;;;;;;;5112980;28;20039;-72
2021/08/08 03:17:30;;;;;;;34.83;7.20;;;;;;;;;;5114383;28;20074;-73
2021/08/08 03:19:56;;;;;;;32.08;6.70;;;;;;;;;;5112770;28;20439;-81
2021/08/08 03:22:22;;;;;;;26.15;5.93;;;;;;;;;;5115070;28;20487;-76
2021/08/08 03:24:48;;;;;;;29.63;6.35;;;;;;;;;;5118573;27;20031;-73
2021/08/08 03:27:14;;;;;;;29.38;8.38;;;;;;;;;;5102543;27;20539;-73
2021/08/08 03:29:40;;;;;;;35.92;7.35;;;;;;;;;;5106950;28;20024;-75
2021/08/08 03:32:07;;;;;;;28.23;6.30;;;;;;;;;;5113889;28;20028;-75
2021/08/08 03:34:33;;;;;;;30.63;6.32;;;;;;;;;;5114133;28;20061;-74
2021/08/08 03:36:59;;;;;;;36.65;6.72;;;;;;;;;;5112708;28;20031;-76
2021/08/08 03:39:25;;;;;;;33.50;7.05;;;;;;;;;;5114374;28;20100;-73
2021/08/08 03:41:52;;;;;;;36.97;6.65;;;;;;;;;;5114078;28;20067;-72
2021/08/08 03:44:18;;;;;;;37.60;7.45;;;;;;;;;;5103683;28;20024;-80
2021/08/08 03:46:44;;;;;;;36.53;8.35;;;;;;;;;;5091055;28;20487;-72
2021/08/08 03:49:12;;;;;;;40.42;8.20;;;;;;;;;;5109881;28;20453;-73
2021/08/08 03:51:38;;;;;;;45.78;9.43;;;;;;;;;;5113828;28;20533;-73
2021/08/08 03:54:04;;;;;;;44.35;7.80;;;;;;;;;;5112360;28;20085;-72
2021/08/08 03:56:30;;;;;;;35.13;8.55;;;;;;;;;;5111339;28;20027;-73
2021/08/08 03:58:56;;;;;;;43.40;7.88;;;;;;;;;;5109197;28;20482;-75
2021/08/08 04:01:22;;;;;;;39.65;8.27;;;;;;;;;;5108753;28;20028;-71
2021/08/08 04:03:48;;;;;;;33.55;7.85;;;;;;;;;;5105458;28;20073;-72
2021/08/08 04:06:14;;;;;;;30.05;7.40;;;;;;;;;;5111964;28;20051;-74
2021/08/08 04:08:40;;;;;;;38.60;8.32;;;;;;;;;;5113471;28;20039;-76
2021/08/08 04:11:13;;;;;;;44.15;7.53;;;;;;;;;;5112971;28;20020;-73
2021/08/08 04:13:39;;;;;;;34.22;9.57;;;;;;;;;;5112347;28;20024;-76
2021/08/08 04:16:05;;;;;;;33.85;7.47;;;;;;;;;;5112251;28;20024;-76
2021/08/08 04:18:32;;;;;;;39.10;8.93;;;;;;;;;;5105915;28;20023;-74
2021/08/08 04:20:58;;;;;;;36.72;7.90;;;;;;;;;;5113177;28;20084;-77
2021/08/08 04:23:24;;;;;;;29.92;7.13;;;;;;;;;;5109474;28;20035;-75
2021/08/08 04:25:50;;;;;;;36.60;6.72;;;;;;;;;;5118526;27;20015;-74
2021/08/08 04:28:16;;;;;;;39.15;9.20;;;;;;;;;;5112997;28;20019;-80
2021/08/08 04:30:42;;;;;;;29.77;7.85;;;;;;;;;;5113465;28;20019;-74
2021/08/08 04:33:08;;;;;;;46.45;8.05;;;;;;;;;;5113043;28;20035;-75
2021/08/08 04:35:34;;;;;;;33.88;7.80;;;;;;;;;;5111447;28;20055;-74
2021/08/08 04:38:01;;;;;;;35.17;6.95;;;;;;;;;;5113354;28;20061;-75
2021/08/08 04:40:27;;;;;;;31.23;7.93;;;;;;;;;;5113109;28;20032;-76
2021/08/08 04:42:53;;;;;;;37.97;9.82;;;;;;;;;;5113054;28;20039;-74
2021/08/08 04:45:23;;;;;;;38.63;7.70;;;;;;;;;;5111493;28;20031;-78
2021/08/08 04:47:49;;;;;;;34.28;7.10;;;;;;;;;;5112834;28;20073;-73
2021/08/08 04:50:16;;;;;;;39.08;7.93;;;;;;;;;;5111095;28;20491;-75
2021/08/08 04:52:42;;;;;;;35.53;9.00;;;;;;;;;;5110022;28;20051;-77
2021/08/08 04:55:08;;;;;;;35.50;6.78;;;;;;;;;;5110811;28;20120;-74
2021/08/08 04:57:34;;;;;;;34.40;7.05;;;;;;;;;;5105271;28;20036;-74
2021/08/08 05:00:00;;;;;;;34.88;7.15;;;;;;;;;;5104629;28;20028;-74
2021/08/08 05:02:26;;;;;;;36.80;7.53;;;;;;;;;;5105487;28;20024;-74
2021/08/08 05:04:52;;;;;;;34.42;7.38;;;;;;;;;;5099475;28;20039;-75
2021/08/08 05:07:19;;;;;;;32.00;7.45;;;;;;;;;;5100335;27;20044;-74
2021/08/08 05:09:45;;;;;;;35.20;7.35;;;;;;;;;;5101363;28;20115;-78
2021/08/08 05:12:11;;;;;;;30.33;9.20;;;;;;;;;;5110136;28;20016;-72
2021/08/08 05:14:38;;;;;;;41.05;7.20;;;;;;;;;;5096481;28;20020;-75
2021/08/08 05:17:04;;;;;;;35.72;7.57;;;;;;;;;;5090457;28;20051;-76
2021/08/08 05:19:30;;;;;;;26.33;6.20;;;;;;;;;;5090585;28;20506;-76
2021/08/08 05:21:56;;;;;;;34.00;7.93;;;;;;;;;;5090162;28;20040;-75
2021/08/08 05:24:22;;;;;;;31.27;6.90;;;;;;;;;;5103156;28;20019;-74
2021/08/08 05:26:48;;;;;;;30.17;6.53;;;;;;;;;;5108492;28;20417;-74
2021/08/08 05:29:15;;;;;;;35.80;7.88;;;;;;;;;;5110725;28;20047;-74
2021/08/08 05:31:41;;;;;;;25.20;7.82;;;;;;;;;;5098309;28;20046;-74
2021/08/08 05:34:07;;;;;;;29.23;7.47;;;;;;;;;;5111235;28;20026;-79
2021/08/08 05:36:34;;;;;;;30.75;7.85;;;;;;;;;;5106380;28;20478;-76
2021/08/08 05:39:00;;;;;;;28.88;7.00;;;;;;;;;;5112140;28;20028;-75
2021/08/08 05:41:26;;;;;;;40.05;7.47;;;;;;;;;;5099918;28;20024;-76
2021/08/08 05:43:53;;;;;;;38.00;7.65;;;;;;;;;;5092453;28;20036;-73
2021/08/08 05:46:19;;;;;;;25.08;6.50;;;;;;;;;;5097987;28;20028;-75
2021/08/08 05:48:45;;;;;;;33.05;7.43;;;;;;;;;;5106474;28;20036;-73
2021/08/08 05:51:11;;;;;;;28.73;7.70;;;;;;;;;;5108122;28;20019;-76
2021/08/08 05:53:37;;;;;;;28.83;6.40;;;;;;;;;;5100294;28;20020;-75
2021/08/08 05:56:03;;;;;;;30.33;7.45;;;;;;;;;;5088892;28;20024;-74
2021/08/08 05:58:29;;;;;;;30.15;7.10;;;;;;;;;;5103944;28;20102;-73
2021/08/08 06:00:56;;;;;;;32.97;6.57;;;;;;;;;;5106965;27;20538;-73
2021/08/08 06:03:22;;;;;;;36.35;6.55;;;;;;;;;;5098538;28;20037;-75
2021/08/08 06:05:48;;;;;;;36.75;7.40;;;;;;;;;;5111476;27;20039;-75
2021/08/08 06:08:14;;;;;;;28.65;6.50;;;;;;;;;;5106553;28;20506;-73
2021/08/08 06:10:40;;;;;;;32.67;7.97;;;;;;;;;;5105907;28;20019;-77
2021/08/08 06:13:06;;;;;;;33.85;6.75;;;;;;;;;;5096988;28;20031;-74
2021/08/08 06:15:32;;;;;;;30.17;6.68;;;;;;;;;;5107083;27;20031;-76
2021/08/08 06:17:58;;;;;;;31.67;7.03;;;;;;;;;;5114964;27;20510;-80
2021/08/08 06:20:24;;;;;;;47.20;8.25;;;;;;;;;;5119649;27;20498;-76
2021/08/08 06:22:50;;;;;;;28.77;7.90;;;;;;;;;;5122181;27;20027;-75
2021/08/08 06:25:17;;;;;;;23.63;5.80;;;;;;;;;;5106990;27;20076;-81
2021/08/08 06:27:43;;;;;;;27.90;6.22;;;;;;;;;;5110939;28;20490;-75
2021/08/08 06:30:09;;;;;;;29.98;5.95;;;;;;;;;;5110788;28;20018;-75
2021/08/08 06:32:35;;;;;;;30.83;5.70;;;;;;;;;;5114012;28;20023;-77
2021/08/08 06:35:02;;;;;;;28.95;5.93;;;;;;;;;;5111986;27;20031;-73
2021/08/08 06:37:28;;;;;;;31.42;7.03;;;;;;;;;;5119424;28;20016;-75
2021/08/08 06:39:54;;;;;;;27.55;5.35;;;;;;;;;;5117042;27;20119;-75
2021/08/08 06:42:20;;;;;;;31.88;6.05;;;;;;;;;;5124316;27;20599;-76
2021/08/08 06:44:46;;;;;;;30.42;6.18;;;;;;;;;;5116976;28;20506;-75
2021/08/08 06:47:13;;;;;;;27.88;6.15;;;;;;;;;;5109743;28;20027;-79
2021/08/08 06:49:39;;;;;;;25.17;6.32;;;;;;;;;;5110599;28;20016;-74
2021/08/08 06:52:05;;;;;;;29.45;6.88;;;;;;;;;;5110659;28;20032;-75
2021/08/08 06:54:31;;;;;;;29.48;6.40;;;;;;;;;;5106143;28;20018;-74
2021/08/08 06:56:57;;;;;;;31.73;6.05;;;;;;;;;;5121739;27;20053;-76
2021/08/08 06:59:26;;;;;;;38.05;7.10;;;;;;;;;;5110368;28;20024;-74
2021/08/08 07:01:52;;;;;;;25.90;5.53;;;;;;;;;;5099452;28;20499;-75
2021/08/08 07:04:18;;;;;;;25.33;6.80;;;;;;;;;;5101910;28;20039;-74
2021/08/08 07:06:44;;;;;;;25.42;5.85;;;;;;;;;;5108899;28;20043;-75
2021/08/08 07:09:10;;;;;;;23.77;6.65;;;;;;;;;;5109285;28;20031;-74
2021/08/08 07:11:36;;;;;;;24.13;4.45;;;;;;;;;;5123217;28;20026;-77
2021/08/08 07:14:03;;;;;;;32.65;6.30;;;;;;;;;;5121160;27;20038;-71
2021/08/08 07:16:29;;;;;;;33.03;5.25;;;;;;;;;;5109629;28;20031;-74
2021/08/08 07:18:55;;;;;;;26.65;6.40;;;;;;;;;;5110666;28;20027;-72
2021/08/08 07:21:21;;;;;;;22.40;5.45;;;;;;;;;;5126003;27;20031;-71
2021/08/08 07:23:47;;;;;;;30.60;6.82;;;;;;;;;;5118339;27;20023;-70
2021/08/08 07:26:13;;;;;;;27.35;6.72;;;;;;;;;;5113148;28;20012;-72
2021/08/08 07:28:39;;;;;;;27.67;5.97;;;;;;;;;;5113668;28;20023;-73
2021/08/08 07:31:05;;;;;;;36.75;6.55;;;;;;;;;;5113328;28;20024;-73
2021/08/08 07:33:31;;;;;;;27.13;5.82;;;;;;;;;;5122640;27;20027;-74
2021/08/08 07:35:57;;;;;;;25.98;6.18;;;;;;;;;;5105581;28;20552;-73
2021/08/08 07:38:23;;;;;;;32.03;6.10;;;;;;;;;;5129890;27;20490;-72
2021/08/08 07:40:49;;;;;;;29.08;5.68;;;;;;;;;;5126850;27;20042;-73
2021/08/08 07:43:15;;;;;;;28.73;7.43;;;;;;;;;;5128743;27;20123;-76
2021/08/08 07:45:41;;;;;;;27.30;5.88;;;;;;;;;;5109823;28;20026;-73
2021/08/08 07:48:07;;;;;;;20.23;5.75;;;;;;;;;;5111795;28;20053;-74
2021/08/08 07:50:33;;;;;;;20.95;5.05;;;;;;;;;;5112433;28;20019;-74
2021/08/08 07:52:59;;;;;;;28.58;6.68;;;;;;;;;;5111640;27;20032;-73
2021/08/08 07:55:26;;;;;;;26.38;5.00;;;;;;;;;;5111556;28;20478;-75
2021/08/08 07:57:52;;;;;;;21.23;4.75;;;;;;;;;;5111510;28;20498;-74
2021/08/08 08:00:18;;;;;;;27.38;5.82;;;;;;;;;;5109350;28;20024;-76
2021/08/08 08:02:44;;;;;;;30.63;6.55;;;;;;;;;;5111401;28;20410;-74
2021/08/08 08:05:10;;;;;;;26.58;5.50;;;;;;;;;;5110070;28;20464;-75
2021/08/08 08:07:36;;;;;;;28.50;6.93;;;;;;;;;;5105730;28;20031;-74
2021/08/08 08:10:04;;;;;;;26.17;5.70;;;;;;;;;;5111554;28;20046;-71
2021/08/08 08:12:30;;;;;;;27.05;5.70;;;;;;;;;;5112948;28;20399;-73
2021/08/08 08:14:56;;;;;;;27.00;5.20;;;;;;;;;;5106502;28;20180;-82
2021/08/08 08:17:22;;;;;;;28.65;6.70;;;;;;;;;;5109014;27;20221;-79
2021/08/08 08:19:48;;;;;;;19.92;5.40;;;;;;;;;;5109351;28;20035;-74
2021/08/08 08:22:16;;;;;;;23.30;5.28;;;;;;;;;;5110070;28;20215;-73
2021/08/08 08:24:43;;;;;;;20.30;5.03;;;;;;;;;;5104111;28;20024;-73
2021/08/08 08:27:09;;;;;;;22.48;5.40;;;;;;;;;;5109197;28;20122;-75
2021/08/08 08:29:35;;;;;;;23.48;5.57;;;;;;;;;;5110017;28;20023;-73
2021/08/08 08:32:01;;;;;;;21.42;4.90;;;;;;;;;;5108257;27;20509;-75
2021/08/08 08:34:27;;;;;;;23.33;6.32;;;;;;;;;;5108235;27;20095;-75
2021/08/08 08:36:53;;;;;;;18.63;4.97;;;;;;;;;;5109058;27;20019;-75
2021/08/08 08:39:19;;;;;;;22.10;5.10;;;;;;;;;;5105650;27;20023;-74
2021/08/08 08:41:46;;;;;;;21.23;5.55;;;;;;;;;;5109568;27;20016;-76
2021/08/08 08:44:12;;;;;;;18.23;4.50;;;;;;;;;;5115059;27;20110;-81
2021/08/08 08:46:41;;;;;;;17.20;5.32;;;;;;;;;;5113537;27;20024;-74
2021/08/08 08:49:09;;;;;;;15.55;5.75;;;;;;;;;;5116370;27;20471;-73
2021/08/08 08:51:40;;;;;;;22.75;6.18;;;;;;;;;;5112773;27;20115;-74
2021/08/08 08:54:06;;;;;;;29.40;6.30;;;;;;;;;;5109849;27;20031;-74
2021/08/08 08:56:33;;;;;;;17.13;4.47;;;;;;;;;;5112124;27;20024;-74
2021/08/08 08:58:59;;;;;;;16.73;5.10;;;;;;;;;;5110486;27;20087;-75
2021/08/08 09:01:25;;;;;;;20.05;5.22;;;;;;;;;;5111596;28;20032;-73
2021/08/08 09:03:51;;;;;;;32.25;6.53;;;;;;;;;;5112390;27;20101;-74
2021/08/08 09:06:17;;;;;;;30.75;5.45;;;;;;;;;;5095932;28;20653;-74
2021/08/08 09:08:43;;;;;;;23.35;6.32;;;;;;;;;;5114324;27;20192;-74
2021/08/08 09:11:10;;;;;;;16.98;4.63;;;;;;;;;;5113189;27;20623;-73
2021/08/08 09:13:48;;;;;;;16.33;5.25;;;;;;;;;;5111154;27;20023;-75
2021/08/08 09:16:14;;;;;;;20.20;4.55;;;;;;;;;;5110257;27;20576;-75
2021/08/08 09:18:48;;;;;;;18.60;4.40;;;;;;;;;;5111548;27;20031;-74
2021/08/08 09:21:14;;;;;;;11.75;4.00;;;;;;;;;;5103142;27;20127;-74
2021/08/08 09:23:40;;;;;;;21.92;4.53;;;;;;;;;;5105113;27;20069;-73
2021/08/08 09:26:06;;;;;;;19.17;5.20;;;;;;;;;;5104608;27;20118;-76
2021/08/08 09:28:32;;;;;;;20.58;5.00;;;;;;;;;;5104026;28;20039;-76
2021/08/08 09:30:59;;;;;;;23.20;5.97;;;;;;;;;;5104885;28;20019;-74
2021/08/08 09:33:25;;;;;;;16.30;4.78;;;;;;;;;;5108144;28;20036;-73
2021/08/08 09:35:55;;;;;;;18.13;4.78;;;;;;;;;;5105762;28;20012;-76
2021/08/08 09:38:21;;;;;;;15.82;4.60;;;;;;;;;;5107314;28;20414;-74
2021/08/08 09:40:58;;;;;;;12.50;4.20;;;;;;;;;;5107504;28;20501;-74
2021/08/08 09:43:25;;;;;;;16.95;4.57;;;;;;;;;;5106871;28;20050;-75
2021/08/08 09:45:51;;;;;;;18.98;4.15;;;;;;;;;;5104450;28;20568;-75
2021/08/08 09:48:17;;;;;;;13.25;3.47;;;;;;;;;;5106211;28;20031;-74
2021/08/08 09:50:44;;;;;;;14.90;4.82;;;;;;;;;;5107642;27;20471;-75
2021/08/08 09:53:23;;;;;;;15.27;5.07;;;;;;;;;;5104950;28;20022;-72
2021/08/08 09:55:51;;;;;;;17.48;3.95;;;;;;;;;;5103008;28;20059;-75
2021/08/08 09:58:21;;;;;;;14.23;3.47;;;;;;;;;;5107512;28;20035;-77
2021/08/08 10:00:48;;;;;;;13.43;3.72;;;;;;;;;;5109099;28;20118;-75
2021/08/08 10:03:15;;;;;;;13.32;3.40;;;;;;;;;;5108036;28;20036;-84
2021/08/08 10:05:43;;;;;;;15.80;3.13;;;;;;;;;;5106603;28;20046;-80
2021/08/08 10:08:27;;;;;;;11.93;3.30;;;;;;;;;;5107961;28;20498;-73
2021/08/08 10:10:54;;;;;;;9.00;2.50;;;;;;;;;;5104690;28;20088;-75
2021/08/08 10:13:39;;;;;;;11.02;3.22;;;;;;;;;;5109553;28;20030;-72
2021/08/08 10:16:09;;;;;;;15.75;4.32;;;;;;;;;;5102897;28;20111;-72
2021/08/08 10:18:39;;;;;;;13.77;3.22;;;;;;;;;;5105994;28;20562;-73
2021/08/08 10:21:06;;;;;;;12.10;2.53;;;;;;;;;;5109558;28;20031;-75
2021/08/08 10:23:32;;;;;;;10.07;2.85;;;;;;;;;;5109434;27;20089;-73
2021/08/08 10:25:58;;;;;;;13.52;3.17;;;;;;;;;;5107031;27;20076;-74
2021/08/08 10:28:24;;;;;;;12.40;3.30;;;;;;;;;;5110602;28;20024;-73
2021/08/08 10:30:51;;;;;;;14.63;3.70;;;;;;;;;;5106073;28;20015;-73
2021/08/08 10:33:17;;;;;;;15.18;4.07;;;;;;;;;;5104839;28;20071;-73
2021/08/08 10:35:45;;;;;;;9.52;3.15;;;;;;;;;;5104189;28;20015;-73
2021/08/08 10:38:11;;;;;;;15.73;4.25;;;;;;;;;;5110433;28;20026;-77
2021/08/08 10:40:39;;;;;;;14.07;3.63;;;;;;;;;;5108654;28;20051;-74
2021/08/08 10:43:06;;;;;;;12.43;4.03;;;;;;;;;;5109492;28;20102;-72
2021/08/08 10:45:33;;;;;;;18.08;4.45;;;;;;;;;;5107668;28;20012;-72
2021/08/08 10:48:09;;;;;;;15.38;4.28;;;;;;;;;;5109860;28;20060;-72
2021/08/08 10:50:35;;;;;;;19.35;4.63;;;;;;;;;;5105427;28;20197;-72
2021/08/08 10:53:02;;;;;;;22.45;4.35;;;;;;;;;;5111937;27;20445;-71
2021/08/08 10:55:30;;;;;;;17.02;4.90;;;;;;;;;;5103942;28;20506;-75
2021/08/08 10:57:56;;;;;;;24.02;5.40;;;;;;;;;;5118053;27;20035;-74
2021/08/08 11:00:30;;;;;;;17.20;5.43;;;;;;;;;;5115658;27;20035;-73
2021/08/08 11:02:56;;;;;;;18.23;5.93;;;;;;;;;;5112769;28;20028;-74
2021/08/08 11:05:22;;;;;;;21.70;6.22;;;;;;;;;;5108944;28;20265;-71
2021/08/08 11:07:48;;;;;;;18.52;6.30;;;;;;;;;;5113216;28;20032;-71
2021/08/08 11:10:27;;;;;;;27.35;7.28;;;;;;;;;;5112282;28;20016;-69
2021/08/08 11:12:54;;;;;;;24.40;6.75;;;;;;;;;;5113174;27;20037;-70
2021/08/08 11:15:31;;;;;;;23.73;6.43;;;;;;;;;;5103268;27;20042;-71
2021/08/08 11:17:58;;;;;;;18.63;5.35;;;;;;;;;;5102428;27;20027;-72
2021/08/08 11:20:29;;;;;;;24.35;6.20;;;;;;;;;;5113750;27;20024;-72
2021/08/08 11:23:02;;;;;;;23.98;5.80;;;;;;;;;;5112074;27;20043;-72
2021/08/08 11:25:34;;;;;;;24.52;5.32;;;;;;;;;;5123755;27;20039;-74
2021/08/08 11:28:01;;;;;;;25.02;5.00;;;;;;;;;;5113106;27;20125;-72
2021/08/08 11:30:37;;;;;;;23.08;5.47;;;;;;;;;;5115953;27;20034;-73
2021/08/08 11:33:03;;;;;;;23.65;5.38;;;;;;;;;;5118971;27;20486;-74
2021/08/08 11:35:29;;;;;;;20.65;5.53;;;;;;;;;;5107020;27;20024;-75
2021/08/08 11:37:56;;;;;;;23.63;5.47;;;;;;;;;;5108571;28;20308;-74
2021/08/08 11:40:23;;;;;;;18.67;4.57;;;;;;;;;;5112301;28;20031;-75
2021/08/08 11:42:54;;;;;;;21.40;3.70;;;;;;;;;;5108488;27;20039;-74
2021/08/08 11:45:31;;;;;;;23.08;4.25;;;;;;;;;;5112685;27;20050;-74
2021/08/08 11:47:57;;;;;;;18.95;4.00;;;;;;;;;;5107133;28;20537;-74
2021/08/08 11:50:28;;;;;;;15.85;4.03;;;;;;;;;;5112793;27;20024;-74
2021/08/08 11:52:55;;;;;;;18.58;4.40;;;;;;;;;;5107962;27;20016;-84
2021/08/08 11:55:21;;;;;;;16.05;5.13;;;;;;;;;;5108592;27;20027;-76
2021/08/08 11:57:47;;;;;;;21.00;5.28;;;;;;;;;;5106273;27;20711;-75
2021/08/08 12:00:13;;;;;;;18.63;4.93;;;;;;;;;;5105321;27;20122;-77
2021/08/08 12:02:39;;;;;;;19.88;4.85;;;;;;;;;;5102840;27;20164;-76
2021/08/08 12:05:06;;;;;;;22.23;3.92;;;;;;;;;;5104668;27;20038;-75
2021/08/08 12:07:33;;;;;;;16.55;4.97;;;;;;;;;;5104457;27;21033;-72
2021/08/08 12:09:59;;;;;;;16.85;4.93;;;;;;;;;;5100229;27;20422;-72
2021/08/08 12:12:38;;;;;;;20.20;4.63;;;;;;;;;;5104976;27;20487;-72
2021/08/08 12:15:06;;;;;;;14.75;4.72;;;;;;;;;;5100555;27;20020;-72
2021/08/08 12:17:32;;;;;;;20.83;5.28;;;;;;;;;;5099508;28;20055;-75
2021/08/08 12:20:07;;;;;;;19.00;5.43;;;;;;;;;;5095558;27;20399;-76
2021/08/08 12:22:33;;;;;;;25.75;6.57;;;;;;;;;;5096838;27;20098;-72
2021/08/08 12:25:01;;;;;;;25.17;7.00;;;;;;;;;;5098026;28;20073;-73
2021/08/08 12:27:53;;;;;;;24.67;6.68;;;;;;;;;;5093928;28;20036;-74
2021/08/08 12:30:19;;;;;;;27.88;6.97;;;;;;;;;;5095705;27;20144;-73
2021/08/08 12:32:45;;;;;;;22.08;4.82;;;;;;;;;;5101509;27;20034;-72
2021/08/08 12:35:16;;;;;;;17.77;5.22;;;;;;;;;;5099684;27;20372;-76
2021/08/08 12:37:43;;;;;;;20.23;5.53;;;;;;;;;;5100851;28;20015;-81
2021/08/08 12:40:16;;;;;;;26.67;5.90;;;;;;;;;;5098893;27;20070;-72
2021/08/08 12:42:42;;;;;;;27.52;5.85;;;;;;;;;;5100300;27;20015;-72
2021/08/08 12:45:13;;;;;;;19.40;4.95;;;;;;;;;;5103393;27;20077;-72
2021/08/08 12:47:41;;;;;;;23.58;5.70;;;;;;;;;;5107225;28;20482;-71
2021/08/08 12:50:13;;;;;;;23.83;5.35;;;;;;;;;;5109452;27;20023;-70
2021/08/08 12:52:39;;;;;;;19.80;4.90;;;;;;;;;;5105481;27;20016;-71
2021/08/08 12:55:05;;;;;;;18.38;5.38;;;;;;;;;;5095625;28;20031;-73
2021/08/08 12:57:31;;;;;;;16.58;4.30;;;;;;;;;;5099888;28;20080;-72
2021/08/08 12:59:57;;;;;;;18.10;5.20;;;;;;;;;;5097122;28;20510;-72
2021/08/08 13:02:23;;;;;;;16.42;4.50;;;;;;;;;;5103553;27;20024;-73
2021/08/08 13:04:49;;;;;;;20.25;4.88;;;;;;;;;;5098155;27;20051;-74
2021/08/08 13:07:15;;;;;;;21.30;5.28;;;;;;;;;;5094230;27;20515;-73
2021/08/08 13:09:41;;;;;;;21.95;5.13;;;;;;;;;;5102365;27;20070;-72
2021/08/08 13:12:08;;;;;;;20.88;5.20;;;;;;;;;;5101532;28;20069;-72
2021/08/08 13:14:34;;;;;;;20.15;5.93;;;;;;;;;;5102537;28;20023;-71
2021/08/08 13:17:00;;;;;;;20.58;5.05;;;;;;;;;;5102886;27;20038;-73
2021/08/08 13:19:26;;;;;;;20.88;5.03;;;;;;;;;;5106782;27;20571;-71
2021/08/08 13:21:52;;;;;;;18.60;4.47;;;;;;;;;;5104518;27;20046;-76
2021/08/08 13:24:18;;;;;;;21.40;5.18;;;;;;;;;;5107314;27;20027;-73
2021/08/08 13:26:44;;;;;;;15.43;4.10;;;;;;;;;;5105980;27;20023;-70
2021/08/08 13:29:10;;;;;;;20.73;5.05;;;;;;;;;;5104551;27;20028;-72
2021/08/08 13:31:36;;;;;;;21.30;5.13;;;;;;;;;;5107454;27;20441;-72
2021/08/08 13:34:02;;;;;;;18.65;4.13;;;;;;;;;;5108489;27;20034;-69
2021/08/08 13:36:28;;;;;;;26.08;5.35;;;;;;;;;;5105052;28;20015;-74
2021/08/08 13:38:54;;;;;;;28.13;4.70;;;;;;;;;;5102563;27;20367;-72
2021/08/08 13:41:20;;;;;;;15.60;3.70;;;;;;;;;;5106456;27;20027;-73
2021/08/08 13:43:46;;;;;;;16.58;4.68;;;;;;;;;;5107817;27;20044;-76
2021/08/08 13:46:12;;;;;;;21.00;3.92;;;;;;;;;;5100882;27;20661;-72
2021/08/08 13:48:39;;;;;;;20.60;4.38;;;;;;;;;;5099472;28;20041;-74
2021/08/08 13:51:05;;;;;;;22.15;4.50;;;;;;;;;;5101786;28;20028;-73
2021/08/08 13:53:32;;;;;;;20.30;4.55;;;;;;;;;;5099760;27;20024;-75
2021/08/08 13:55:58;;;;;;;18.25;4.35;;;;;;;;;;5096253;27;20039;-72
2021/08/08 13:58:24;;;;;;;16.60;4.88;;;;;;;;;;5109015;28;20016;-70
2021/08/08 14:00:50;;;;;;;20.35;4.15;;;;;;;;;;5103795;27;20027;-71
2021/08/08 14:03:19;;;;;;;19.73;4.65;;;;;;;;;;5100393;28;20112;-71
2021/08/08 14:05:45;;;;;;;20.23;4.88;;;;;;;;;;5100134;28;20176;-71
2021/08/08 14:08:11;;;;;;;18.45;3.53;;;;;;;;;;5102621;27;20035;-71
2021/08/08 14:10:39;;;;;;;20.42;4.00;;;;;;;;;;5100831;28;20063;-73
2021/08/08 14:13:05;;;;;;;11.02;3.13;;;;;;;;;;5103265;28;20028;-73
2021/08/08 14:15:32;;;;;;;25.33;5.75;;;;;;;;;;5094964;28;20077;-72
2021/08/08 14:17:58;;;;;;;16.45;3.60;;;;;;;;;;5101193;28;20031;-74
2021/08/08 14:20:24;;;;;;;21.70;3.97;;;;;;;;;;5098943;27;20040;-73
2021/08/08 14:22:50;;;;;;;21.20;4.30;;;;;;;;;;5102672;27;20034;-71
2021/08/08 14:25:16;;;;;;;25.42;4.90;;;;;;;;;;5102080;28;20039;-70
2021/08/08 14:27:42;;;;;;;20.92;3.78;;;;;;;;;;5106713;28;20027;-72
2021/08/08 14:30:09;;;;;;;24.83;5.35;;;;;;;;;;5105908;27;20032;-71